createdAt,value
2023-04-17T00:00:27.400Z,102594.69
2023-04-17T00:02:56.536Z,102595.38
2023-04-17T00:05:26.483Z,102596.09
2023-04-17T00:07:54.403Z,102596.22
2023-04-17T00:10:22.249Z,102594.56
2023-04-17T00:12:50.201Z,102594.56
2023-04-17T00:15:18.010Z,102593.00
2023-04-17T00:17:45.712Z,102592.88
2023-04-17T00:20:14.903Z,102599.88
2023-04-17T00:22:42.697Z,102604.38
2023-04-17T00:25:13.037Z,102602.41
2023-04-17T00:27:40.779Z,102600.56
2023-04-17T00:30:09.613Z,102607.72
2023-04-17T00:32:37.224Z,102604.38
2023-04-17T00:35:05.245Z,102600.84
2023-04-17T00:37:35.676Z,102604.09
2023-04-17T00:40:03.839Z,102603.81
2023-04-17T00:42:31.455Z,102594.41
2023-04-17T00:44:59.095Z,102591.06
2023-04-17T00:47:27.395Z,102598.88
2023-04-17T00:49:55.360Z,102592.03
2023-04-17T00:52:29.694Z,102598.06
2023-04-17T00:55:00.120Z,102597.22
2023-04-17T00:57:28.029Z,102600.44
2023-04-17T00:59:57.856Z,102597.50
2023-04-17T01:02:26.076Z,102589.66
2023-04-17T01:04:53.829Z,102591.78
2023-04-17T01:07:21.759Z,102595.41
2023-04-17T01:09:49.437Z,102591.78
2023-04-17T01:12:19.931Z,102596.94
2023-04-17T01:14:47.926Z,102594.00
2023-04-17T01:17:15.575Z,102594.00
2023-04-17T01:19:43.235Z,102589.50
2023-04-17T01:22:10.964Z,102585.59
2023-04-17T01:24:40.146Z,102591.19
2023-04-17T01:27:07.813Z,102585.59
2023-04-17T01:29:35.406Z,102591.19
2023-04-17T01:32:03.145Z,102590.50
2023-04-17T01:34:31.213Z,102588.94
2023-04-17T01:36:58.819Z,102587.00
2023-04-17T01:39:27.019Z,102592.31
2023-04-17T01:41:56.491Z,102587.84
2023-04-17T01:44:24.489Z,102590.06
2023-04-17T01:46:52.328Z,102588.94
2023-04-17T01:49:20.607Z,102586.28
2023-04-17T01:51:48.638Z,102589.94
2023-04-17T01:54:16.489Z,102581.81
2023-04-17T01:56:44.137Z,102593.44
2023-04-17T01:59:13.294Z,102591.75
2023-04-17T02:01:41.324Z,102607.69
2023-04-17T02:04:09.061Z,102603.19
2023-04-17T02:06:36.835Z,102611.47
2023-04-17T02:09:04.912Z,102611.91
2023-04-17T02:11:32.689Z,102606.69
2023-04-17T02:14:00.538Z,102612.00
2023-04-17T02:16:31.761Z,102612.28
2023-04-17T02:18:59.514Z,102607.06
2023-04-17T02:21:28.276Z,102608.19
2023-04-17T02:23:56.001Z,102604.53
2023-04-17T02:26:23.612Z,102609.00
2023-04-17T02:28:51.223Z,102607.47
2023-04-17T02:31:18.884Z,102602.97
2023-04-17T02:33:47.831Z,102605.63
2023-04-17T02:36:16.160Z,102607.34
2023-04-17T02:38:43.767Z,102609.72
2023-04-17T02:41:11.385Z,102609.84
2023-04-17T02:43:39.053Z,102613.78
2023-04-17T02:46:06.776Z,102610.38
2023-04-17T02:48:34.439Z,102607.00
2023-04-17T02:51:03.366Z,102608.53
2023-04-17T02:53:30.991Z,102609.53
2023-04-17T02:55:58.956Z,102615.53
2023-04-17T02:58:26.513Z,102623.38
2023-04-17T03:01:01.297Z,102612.63
2023-04-17T03:03:31.160Z,102617.94
2023-04-17T03:05:58.977Z,102615.00
2023-04-17T03:08:32.507Z,102616.69
2023-04-17T03:11:00.836Z,102616.53
2023-04-17T03:13:28.466Z,102615.56
2023-04-17T03:15:56.272Z,102617.50
2023-04-17T03:18:23.955Z,102612.19
2023-04-17T03:20:52.743Z,102613.88
2023-04-17T03:23:20.345Z,102622.28
2023-04-17T03:25:49.375Z,102616.72
2023-04-17T03:28:17.343Z,102613.94
2023-04-17T03:30:45.021Z,102619.97
2023-04-17T03:33:12.611Z,102626.13
2023-04-17T03:35:40.412Z,102623.34
2023-04-17T03:38:08.034Z,102624.31
2023-04-17T03:40:35.866Z,102633.41
2023-04-17T03:43:04.948Z,102626.78
2023-04-17T03:45:32.592Z,102630.03
2023-04-17T03:48:00.376Z,102633.41
2023-04-17T03:50:28.086Z,102639.69
2023-04-17T03:52:55.836Z,102636.56
2023-04-17T03:55:23.505Z,102635.56
2023-04-17T03:57:51.692Z,102633.75
2023-04-17T04:00:21.819Z,102640.78
2023-04-17T04:02:49.705Z,102637.53
2023-04-17T04:05:17.577Z,102637.22
2023-04-17T04:07:45.246Z,102641.53
2023-04-17T04:10:12.883Z,102640.88
2023-04-17T04:12:40.552Z,102640.63
2023-04-17T04:15:09.609Z,102637.38
2023-04-17T04:17:38.581Z,102635.28
2023-04-17T04:20:08.314Z,102633.19
2023-04-17T04:22:36.181Z,102638.97
2023-04-17T04:25:03.926Z,102636.06
2023-04-17T04:27:32.870Z,102640.97
2023-04-17T04:30:01.857Z,102636.50
2023-04-17T04:32:29.796Z,102637.06
2023-04-17T04:35:01.539Z,102635.56
2023-04-17T04:37:31.624Z,102640.59
2023-04-17T04:40:02.118Z,102642.88
2023-04-17T04:42:29.951Z,102641.19
2023-04-17T04:44:57.538Z,102644.69
2023-04-17T04:47:25.149Z,102647.91
2023-04-17T04:49:52.745Z,102649.97
2023-04-17T04:52:21.677Z,102649.38
2023-04-17T04:54:49.665Z,102651.34
2023-04-17T04:57:17.387Z,102649.34
2023-04-17T04:59:45.010Z,102643.50
2023-04-17T05:02:12.805Z,102645.72
2023-04-17T05:04:41.284Z,102640.13
2023-04-17T05:07:09.047Z,102652.47
2023-04-17T05:09:38.362Z,102652.22
2023-04-17T05:12:06.541Z,102647.53
2023-04-17T05:14:34.120Z,102653.13
2023-04-17T05:17:01.880Z,102652.28
2023-04-17T05:19:30.315Z,102660.50
2023-04-17T05:21:57.930Z,102652.75
2023-04-17T05:24:25.590Z,102660.22
2023-04-17T05:26:54.552Z,102650.47
2023-04-17T05:29:24.609Z,102653.19
2023-04-17T05:31:52.712Z,102659.69
2023-04-17T05:34:20.454Z,102651.69
2023-04-17T05:36:48.291Z,102655.84
2023-04-17T05:39:16.035Z,102656.66
2023-04-17T05:41:43.643Z,102659.69
2023-04-17T05:44:12.613Z,102659.59
2023-04-17T05:46:40.191Z,102666.41
2023-04-17T05:49:09.335Z,102672.69
2023-04-17T05:51:37.124Z,102668.47
2023-04-17T05:54:04.860Z,102664.44
2023-04-17T05:56:32.497Z,102671.97
2023-04-17T05:59:00.107Z,102668.00
2023-04-17T06:01:30.044Z,102670.03
2023-04-17T06:03:57.873Z,102681.47
2023-04-17T06:06:26.462Z,102676.44
2023-04-17T06:08:54.492Z,102679.00
2023-04-17T06:11:22.418Z,102679.69
2023-04-17T06:13:50.103Z,102684.00
2023-04-17T06:16:17.990Z,102681.69
2023-04-17T06:18:47.200Z,102682.38
2023-04-17T06:21:14.827Z,102685.50
2023-04-17T06:23:42.427Z,102685.72
2023-04-17T06:26:10.971Z,102687.94
2023-04-17T06:28:38.714Z,102681.06
2023-04-17T06:31:06.975Z,102694.88
2023-04-17T06:33:34.603Z,102691.00
2023-04-17T06:36:03.692Z,102689.78
2023-04-17T06:38:31.316Z,102681.13
2023-04-17T06:40:59.214Z,102693.22
2023-04-17T06:43:27.046Z,102691.28
2023-04-17T06:45:54.683Z,102697.41
2023-04-17T06:48:22.393Z,102698.59
2023-04-17T06:50:50.224Z,102695.19
2023-04-17T06:53:19.511Z,102696.53
2023-04-17T06:55:47.766Z,102703.47
2023-04-17T06:58:15.534Z,102713.38
2023-04-17T07:00:43.313Z,102710.88
2023-04-17T07:03:11.351Z,102715.09
2023-04-17T07:05:39.080Z,102714.97
2023-04-17T07:08:07.080Z,102718.97
2023-04-17T07:10:36.324Z,102721.19
2023-04-17T07:13:03.939Z,102731.66
2023-04-17T07:15:31.922Z,102726.28
2023-04-17T07:18:00.067Z,102725.06
2023-04-17T07:20:27.988Z,102728.31
2023-04-17T07:22:56.666Z,102725.53
2023-04-17T07:25:24.541Z,102726.09
2023-04-17T07:27:56.833Z,102725.81
2023-04-17T07:30:24.744Z,102727.00
2023-04-17T07:32:52.503Z,102726.00
2023-04-17T07:35:20.448Z,102733.56
2023-04-17T07:37:48.028Z,102735.75
2023-04-17T07:40:16.412Z,102737.88
2023-04-17T07:42:44.089Z,102746.00
2023-04-17T07:45:13.349Z,102752.09
2023-04-17T07:47:41.209Z,102741.19
2023-04-17T07:50:09.583Z,102745.75
2023-04-17T07:52:37.236Z,102742.91
2023-04-17T07:55:05.384Z,102749.28
2023-04-17T07:57:33.032Z,102754.97
2023-04-17T08:00:00.724Z,102750.63
2023-04-17T08:02:29.849Z,102745.94
2023-04-17T08:04:58.279Z,102769.38
2023-04-17T08:07:25.981Z,102751.25
2023-04-17T08:09:54.203Z,102763.16
2023-04-17T08:12:21.783Z,102750.44
2023-04-17T08:14:49.487Z,102765.22
2023-04-17T08:17:20.124Z,102758.97
2023-04-17T08:19:50.240Z,102770.72
2023-04-17T08:22:19.625Z,102768.19
2023-04-17T08:24:47.289Z,102777.41
2023-04-17T08:27:15.778Z,102771.88
2023-04-17T08:29:44.825Z,102774.56
2023-04-17T08:32:14.520Z,102773.41
2023-04-17T08:34:43.475Z,102779.78
2023-04-17T08:37:12.635Z,102770.22
2023-04-17T08:39:40.384Z,102773.94
2023-04-17T08:42:14.761Z,102779.94
2023-04-17T08:44:45.578Z,102790.34
2023-04-17T08:47:14.171Z,102780.13
2023-04-17T08:49:43.791Z,102782.44
2023-04-17T08:52:13.091Z,102791.50
2023-04-17T08:54:41.075Z,102780.78
2023-04-17T08:57:08.775Z,102794.34
2023-04-17T08:59:36.542Z,102795.53
2023-04-17T09:02:06.819Z,102792.34
2023-04-17T09:04:39.570Z,102799.53
2023-04-17T09:07:08.171Z,102794.84
2023-04-17T09:09:49.316Z,102792.34
2023-04-17T09:12:17.266Z,102803.75
2023-04-17T09:14:45.472Z,102795.53
2023-04-17T09:17:15.101Z,102800.72
2023-04-17T09:20:03.986Z,102801.72
2023-04-17T09:22:31.725Z,102811.63
2023-04-17T09:25:01.361Z,102811.28
2023-04-17T09:27:29.928Z,102822.03
2023-04-17T09:29:59.529Z,102821.66
2023-04-17T09:32:27.390Z,102818.66
2023-04-17T09:34:56.918Z,102830.22
2023-04-17T09:37:24.981Z,102826.38
2023-04-17T09:40:02.161Z,102837.75
2023-04-17T09:42:29.854Z,102833.75
2023-04-17T09:44:57.776Z,102839.44
2023-04-17T09:47:25.457Z,102834.75
2023-04-17T09:49:54.064Z,102847.31
2023-04-17T09:52:23.565Z,102837.75
2023-04-17T09:54:53.776Z,102841.94
2023-04-17T09:57:23.177Z,102841.28
2023-04-17T09:59:51.183Z,102847.31
2023-04-17T10:02:22.486Z,102843.97
2023-04-17T10:04:50.181Z,102846.81
2023-04-17T10:07:18.634Z,102853.69
2023-04-17T10:09:46.449Z,102858.06
2023-04-17T10:12:16.344Z,102852.00
2023-04-17T10:14:48.805Z,102860.06
2023-04-17T10:17:28.425Z,102854.34
2023-04-17T10:19:56.556Z,102861.91
2023-04-17T10:22:31.660Z,102861.56
2023-04-17T10:25:19.089Z,102856.06
2023-04-17T10:28:06.249Z,102866.78
2023-04-17T10:30:55.573Z,102853.53
2023-04-17T10:33:25.803Z,102868.97
2023-04-17T10:35:54.274Z,102857.38
2023-04-17T10:38:33.577Z,102850.50
2023-04-17T10:41:04.349Z,102871.78
2023-04-17T10:43:32.862Z,102872.31
2023-04-17T10:46:06.510Z,102865.94
2023-04-17T10:48:36.264Z,102855.56
2023-04-17T10:51:37.722Z,102866.78
2023-04-17T10:54:06.410Z,102868.94
2023-04-17T10:56:38.914Z,102864.59
2023-04-17T10:59:07.968Z,102876.66
2023-04-17T11:01:41.306Z,102866.06
2023-04-17T11:04:10.525Z,102871.75
2023-04-17T11:06:40.434Z,102886.47
2023-04-17T11:09:10.457Z,102882.16
2023-04-17T11:11:44.064Z,102888.72
2023-04-17T11:14:14.848Z,102884.22
2023-04-17T11:16:46.457Z,102884.53
2023-04-17T11:19:19.296Z,102896.09
2023-04-17T11:21:49.272Z,102894.41
2023-04-17T11:24:23.903Z,102896.47
2023-04-17T11:26:51.531Z,102905.31
2023-04-17T11:29:20.685Z,102896.28
2023-04-17T11:31:52.024Z,102901.59
2023-04-17T11:34:20.228Z,102901.16
2023-04-17T11:36:50.424Z,102903.00
2023-04-17T11:39:18.824Z,102886.88
2023-04-17T11:41:49.569Z,102902.63
2023-04-17T11:44:20.045Z,102895.28
2023-04-17T11:46:52.671Z,102903.28
2023-04-17T11:49:26.364Z,102902.47
2023-04-17T11:51:54.202Z,102903.50
2023-04-17T11:54:25.701Z,102900.63
2023-04-17T11:57:01.316Z,102908.19
2023-04-17T11:59:32.979Z,102906.19
2023-04-17T12:02:02.375Z,102910.72
2023-04-17T12:04:33.648Z,102917.53
2023-04-17T12:07:02.157Z,102903.16
2023-04-17T12:09:31.780Z,102904.16
2023-04-17T12:12:00.227Z,102907.00
2023-04-17T12:14:27.948Z,102896.78
2023-04-17T12:16:55.569Z,102903.66
2023-04-17T12:19:26.644Z,102895.78
2023-04-17T12:21:55.073Z,102906.69
2023-04-17T12:24:24.771Z,102901.13
2023-04-17T12:26:53.263Z,102908.03
2023-04-17T12:29:32.230Z,102909.69
2023-04-17T12:32:10.240Z,102894.28
2023-04-17T12:34:39.677Z,102898.13
2023-04-17T12:37:07.365Z,102898.13
2023-04-17T12:39:34.992Z,102911.88
2023-04-17T12:42:02.593Z,102916.59
2023-04-17T12:44:30.242Z,102907.34
2023-04-17T12:46:57.917Z,102900.31
2023-04-17T12:49:25.569Z,102901.31
2023-04-17T12:51:54.756Z,102903.31
2023-04-17T12:54:22.323Z,102899.13
2023-04-17T12:56:49.924Z,102910.84
2023-04-17T12:59:17.630Z,102917.25
2023-04-17T13:01:45.799Z,102917.44
2023-04-17T13:04:14.219Z,102894.44
2023-04-17T13:06:42.512Z,102906.84
2023-04-17T13:09:11.675Z,102909.34
2023-04-17T13:11:39.437Z,102917.25
2023-04-17T13:14:07.448Z,102916.22
2023-04-17T13:16:35.119Z,102903.84
2023-04-17T13:19:02.843Z,102912.50
2023-04-17T13:21:30.867Z,102919.50
2023-04-17T13:23:58.508Z,102915.31
2023-04-17T13:26:27.620Z,102911.81
2023-04-17T13:28:55.225Z,102910.00
2023-04-17T13:31:24.580Z,102914.72
2023-04-17T13:33:52.293Z,102917.59
2023-04-17T13:36:19.936Z,102917.25
2023-04-17T13:38:47.535Z,102926.94
2023-04-17T13:41:15.182Z,102921.25
2023-04-17T13:43:44.405Z,102929.44
2023-04-17T13:46:15.859Z,102936.84
2023-04-17T13:48:43.565Z,102928.47
2023-04-17T13:51:11.423Z,102917.22
2023-04-17T13:53:39.022Z,102913.91
2023-04-17T13:56:07.500Z,102915.56
2023-04-17T13:58:35.673Z,102920.94
2023-04-17T14:01:04.759Z,102913.34
2023-04-17T14:03:32.470Z,102908.34
2023-04-17T14:06:00.459Z,102908.03
2023-04-17T14:08:28.034Z,102912.03
2023-04-17T14:10:55.709Z,102899.63
2023-04-17T14:13:23.322Z,102912.69
2023-04-17T14:15:53.535Z,102908.69
2023-04-17T14:18:24.654Z,102920.94
2023-04-17T14:20:53.965Z,102911.19
2023-04-17T14:23:21.633Z,102916.88
2023-04-17T14:25:49.403Z,102919.72
2023-04-17T14:28:18.387Z,102911.19
2023-04-17T14:30:46.004Z,102928.66
2023-04-17T14:33:13.612Z,102913.53
2023-04-17T14:35:42.717Z,102909.19
2023-04-17T14:38:10.414Z,102918.91
2023-04-17T14:40:38.232Z,102920.09
2023-04-17T14:43:05.859Z,102921.41
2023-04-17T14:45:34.513Z,102915.50
2023-04-17T14:48:02.275Z,102922.91
2023-04-17T14:50:29.923Z,102917.22
2023-04-17T14:52:59.026Z,102925.72
2023-04-17T14:55:26.862Z,102922.06
2023-04-17T14:57:55.530Z,102924.66
2023-04-17T15:00:23.681Z,102923.34
2023-04-17T15:02:51.400Z,102927.69
2023-04-17T15:05:20.856Z,102926.34
2023-04-17T15:07:48.934Z,102932.44
2023-04-17T15:10:17.993Z,102924.72
2023-04-17T15:12:45.656Z,102920.69
2023-04-17T15:15:13.380Z,102920.69
2023-04-17T15:17:41.034Z,102930.75
2023-04-17T15:20:09.310Z,102923.69
2023-04-17T15:22:36.887Z,102921.53
2023-04-17T15:25:05.080Z,102917.34
2023-04-17T15:27:34.375Z,102921.66
2023-04-17T15:30:04.849Z,102914.72
2023-04-17T15:32:32.499Z,102924.84
2023-04-17T15:35:00.119Z,102925.19
2023-04-17T15:37:27.708Z,102916.09
2023-04-17T15:39:55.686Z,102917.09
2023-04-17T15:42:23.542Z,102922.94
2023-04-17T15:44:53.035Z,102916.22
2023-04-17T15:47:20.667Z,102924.75
2023-04-17T15:49:48.532Z,102921.44
2023-04-17T15:52:16.404Z,102918.47
2023-04-17T15:54:44.022Z,102911.50
2023-04-17T15:57:11.679Z,102914.19
2023-04-17T15:59:39.275Z,102904.94
2023-04-17T16:02:08.332Z,102924.22
2023-04-17T16:04:36.164Z,102919.00
2023-04-17T16:07:04.334Z,102930.03
2023-04-17T16:09:31.939Z,102921.34
2023-04-17T16:11:59.549Z,102923.13
2023-04-17T16:14:27.871Z,102923.81
2023-04-17T16:16:55.931Z,102922.69
2023-04-17T16:19:28.336Z,102924.94
2023-04-17T16:21:56.797Z,102926.19
2023-04-17T16:24:24.711Z,102925.97
2023-04-17T16:26:54.436Z,102928.63
2023-04-17T16:29:22.287Z,102924.25
2023-04-17T16:31:49.937Z,102923.63
2023-04-17T16:34:17.809Z,102934.97
2023-04-17T16:36:46.804Z,102937.63
2023-04-17T16:39:14.686Z,102926.41
2023-04-17T16:41:42.511Z,102935.53
2023-04-17T16:44:10.359Z,102925.50
2023-04-17T16:46:58.706Z,102929.56
2023-04-17T16:49:25.728Z,102919.53
2023-04-17T16:51:55.235Z,102931.38
2023-04-17T16:54:22.807Z,102920.59
2023-04-17T16:56:50.847Z,102926.09
2023-04-17T16:59:18.456Z,102933.38
2023-04-17T17:01:46.979Z,102925.66
2023-04-17T17:04:15.784Z,102936.34
2023-04-17T17:06:43.431Z,102927.59
2023-04-17T17:09:12.781Z,102937.88
2023-04-17T17:11:40.674Z,102937.56
2023-04-17T17:14:08.306Z,102943.53
2023-04-17T17:16:36.715Z,102934.81
2023-04-17T17:19:05.181Z,102933.91
2023-04-17T17:21:32.941Z,102935.44
2023-04-17T17:24:00.577Z,102941.44
2023-04-17T17:26:29.737Z,102939.25
2023-04-17T17:28:57.326Z,102951.78
2023-04-17T17:31:25.048Z,102956.66
2023-04-17T17:33:54.457Z,102951.09
2023-04-17T17:36:22.553Z,102953.91
2023-04-17T17:38:55.407Z,102954.34
2023-04-17T17:41:23.618Z,102963.25
2023-04-17T17:43:55.966Z,102961.16
2023-04-17T17:46:24.141Z,102961.59
2023-04-17T17:48:51.849Z,102964.69
2023-04-17T17:51:19.997Z,102956.00
2023-04-17T17:53:47.589Z,102973.16
2023-04-17T17:56:15.236Z,102964.72
2023-04-17T17:58:42.845Z,102966.00
2023-04-17T18:01:11.919Z,102956.03
2023-04-17T18:03:39.749Z,102965.47
2023-04-17T18:06:07.744Z,102967.16
2023-04-17T18:08:35.800Z,102969.44
2023-04-17T18:11:03.575Z,102978.00
2023-04-17T18:13:31.229Z,102981.50
2023-04-17T18:15:59.045Z,102973.06
2023-04-17T18:18:28.036Z,102978.16
2023-04-17T18:20:55.695Z,102994.00
2023-04-17T18:23:23.444Z,102994.78
2023-04-17T18:25:57.970Z,102999.41
2023-04-17T18:28:26.019Z,103000.38
2023-04-17T18:30:53.820Z,103001.31
2023-04-17T18:33:21.739Z,103001.88
2023-04-17T18:35:50.953Z,103010.25
2023-04-17T18:38:18.529Z,103010.94
2023-04-17T18:40:46.114Z,103020.84
2023-04-17T18:43:13.766Z,103012.53
2023-04-17T18:45:41.488Z,103022.44
2023-04-17T18:48:09.107Z,103020.31
2023-04-17T18:50:38.331Z,103030.47
2023-04-17T18:53:07.470Z,103036.03
2023-04-17T18:55:37.186Z,103030.97
2023-04-17T18:58:05.188Z,103047.47
2023-04-17T19:00:33.018Z,103044.56
2023-04-17T19:03:00.687Z,103045.09
2023-04-17T19:05:28.348Z,103048.16
2023-04-17T19:07:55.940Z,103046.97
2023-04-17T19:10:24.972Z,103055.59
2023-04-17T19:12:52.577Z,103055.25
2023-04-17T19:15:21.001Z,103063.38
2023-04-17T19:17:48.599Z,103061.09
2023-04-17T19:20:16.765Z,103063.13
2023-04-17T19:22:44.476Z,103053.75
2023-04-17T19:25:12.432Z,103059.19
2023-04-17T19:27:41.377Z,103063.03
2023-04-17T19:30:10.114Z,103061.59
2023-04-17T19:32:37.831Z,103071.47
2023-04-17T19:35:07.134Z,103066.56
2023-04-17T19:37:34.879Z,103064.25
2023-04-17T19:40:04.352Z,103063.69
2023-04-17T19:42:36.794Z,103068.25
2023-04-17T19:45:06.935Z,103074.56
2023-04-17T19:47:34.593Z,103072.75
2023-04-17T19:50:02.709Z,103075.78
2023-04-17T19:52:30.260Z,103070.47
2023-04-17T19:54:57.819Z,103078.56
2023-04-17T19:57:25.407Z,103078.56
2023-04-17T19:59:53.032Z,103079.63
2023-04-17T20:02:22.071Z,103088.84
2023-04-17T20:04:49.772Z,103094.25
2023-04-17T20:07:17.344Z,103090.66
2023-04-17T20:09:45.002Z,103091.59
2023-04-17T20:12:12.599Z,103097.75
2023-04-17T20:14:40.259Z,103096.91
2023-04-17T20:17:08.296Z,103101.38
2023-04-17T20:19:37.321Z,103103.31
2023-04-17T20:22:04.950Z,103105.25
2023-04-17T20:24:32.565Z,103105.63
2023-04-17T20:27:00.141Z,103106.22
2023-04-17T20:29:28.101Z,103108.75
2023-04-17T20:31:56.264Z,103099.69
2023-04-17T20:34:24.233Z,103106.22
2023-04-17T20:36:53.217Z,103099.22
2023-04-17T20:39:20.869Z,103102.84
2023-04-17T20:41:48.583Z,103104.91
2023-04-17T20:44:18.560Z,103100.56
2023-04-17T20:46:46.206Z,103102.38
2023-04-17T20:49:14.100Z,103101.28
2023-04-17T20:51:41.785Z,103102.97
2023-04-17T20:54:11.354Z,103101.03
2023-04-17T20:56:39.126Z,103104.16
2023-04-17T20:59:06.779Z,103107.06
2023-04-17T21:01:35.871Z,103105.34
2023-04-17T21:04:03.791Z,103108.47
2023-04-17T21:06:31.413Z,103106.91
2023-04-17T21:08:58.990Z,103107.75
2023-04-17T21:11:27.996Z,103110.28
2023-04-17T21:13:55.653Z,103107.00
2023-04-17T21:16:23.274Z,103104.13
2023-04-17T21:18:50.937Z,103112.31
2023-04-17T21:21:18.613Z,103111.38
2023-04-17T21:23:46.223Z,103110.66
2023-04-17T21:26:13.873Z,103104.34
2023-04-17T21:28:43.597Z,103112.44
2023-04-17T21:31:14.714Z,103105.34
2023-04-17T21:33:42.312Z,103105.34
2023-04-17T21:36:10.604Z,103110.50
2023-04-17T21:38:38.184Z,103111.38
2023-04-17T21:41:05.836Z,103109.66
2023-04-17T21:43:33.497Z,103102.69
2023-04-17T21:46:02.587Z,103108.81
2023-04-17T21:48:30.269Z,103107.00
2023-04-17T21:51:03.325Z,103114.88
2023-04-17T21:53:30.954Z,103113.06
2023-04-17T21:55:58.543Z,103116.66
2023-04-17T21:58:26.213Z,103111.47
2023-04-17T22:00:55.074Z,103112.78
2023-04-17T22:03:24.195Z,103112.78
2023-04-17T22:05:53.981Z,103114.72
2023-04-17T22:08:21.592Z,103120.13
2023-04-17T22:10:49.520Z,103121.97
2023-04-17T22:13:17.228Z,103123.25
2023-04-17T22:15:45.555Z,103120.81
2023-04-17T22:18:13.414Z,103132.88
2023-04-17T22:20:42.395Z,103132.25
2023-04-17T22:23:10.003Z,103127.19
2023-04-17T22:25:37.646Z,103127.53
2023-04-17T22:28:05.443Z,103134.03
2023-04-17T22:30:33.067Z,103132.53
2023-04-17T22:33:01.300Z,103133.63
2023-04-17T22:35:28.953Z,103133.00
2023-04-17T22:37:58.222Z,103128.91
2023-04-17T22:40:25.861Z,103132.72
2023-04-17T22:42:53.515Z,103137.19
2023-04-17T22:45:21.062Z,103140.81
2023-04-17T22:47:48.704Z,103134.53
2023-04-17T22:50:17.832Z,103131.66
2023-04-17T22:52:45.569Z,103132.50
2023-04-17T22:55:14.941Z,103136.22
2023-04-17T22:57:42.559Z,103136.22
2023-04-17T23:00:11.453Z,103138.97
2023-04-17T23:02:39.284Z,103132.72
2023-04-17T23:05:08.176Z,103143.19
2023-04-17T23:07:35.738Z,103144.06
2023-04-17T23:10:03.352Z,103141.41
2023-04-17T23:12:32.453Z,103145.03
2023-04-17T23:15:00.051Z,103147.78
2023-04-17T23:17:27.740Z,103145.97
2023-04-17T23:19:55.625Z,103143.47
2023-04-17T23:22:23.335Z,103146.34
2023-04-17T23:24:51.199Z,103149.94
2023-04-17T23:27:18.784Z,103147.38
2023-04-17T23:29:47.679Z,103144.94
2023-04-17T23:32:16.234Z,103145.06
2023-04-17T23:34:43.959Z,103140.84
2023-04-17T23:37:11.851Z,103146.25
2023-04-17T23:39:39.515Z,103139.38
2023-04-17T23:42:08.025Z,103145.53
2023-04-17T23:44:35.978Z,103134.28
2023-04-17T23:47:05.228Z,103136.00
2023-04-17T23:49:32.924Z,103131.78
2023-04-17T23:52:00.573Z,103135.25
2023-04-17T23:54:28.217Z,103143.31
2023-04-17T23:56:56.447Z,103139.81
2023-04-17T23:59:24.252Z,103139.94
